createdAt,value
2019-04-13T00:02:21.283Z,6.19
2019-04-13T00:05:21.645Z,6.05
2019-04-13T00:07:55.854Z,6.18
2019-04-13T00:10:47.417Z,6.09
2019-04-13T00:13:19.380Z,6.11
2019-04-13T00:15:51.329Z,6.07
2019-04-13T00:18:23.315Z,6.12
2019-04-13T00:20:55.399Z,6.08
2019-04-13T00:23:27.505Z,6.14
2019-04-13T00:25:59.450Z,6.22
2019-04-13T00:28:31.409Z,6.18
2019-04-13T00:31:03.384Z,6.22
2019-04-13T00:33:35.336Z,6.17
2019-04-13T00:36:07.288Z,6.17
2019-04-13T00:38:39.386Z,6.05
2019-04-13T00:41:11.352Z,6.04
2019-04-13T00:43:43.318Z,6.12
2019-04-13T00:46:15.272Z,6.07
2019-04-13T00:48:47.225Z,6.09
2019-04-13T00:51:19.157Z,6.08
2019-04-13T00:53:51.114Z,6.06
2019-04-13T00:56:23.053Z,5.96
2019-04-13T00:58:55.062Z,5.87
2019-04-13T01:01:27.023Z,6.00
2019-04-13T01:03:58.985Z,5.83
2019-04-13T01:06:30.936Z,5.78
2019-04-13T01:09:07.298Z,5.83
2019-04-13T01:11:39.241Z,5.81
2019-04-13T01:14:11.210Z,5.82
2019-04-13T01:16:43.156Z,5.86
2019-04-13T01:19:15.120Z,5.88
2019-04-13T01:21:47.046Z,5.92
2019-04-13T01:24:19.000Z,5.99
2019-04-13T01:26:50.937Z,5.99
2019-04-13T01:29:22.906Z,6.05
2019-04-13T01:31:54.852Z,5.98
2019-04-13T01:34:26.805Z,5.98
2019-04-13T01:36:58.785Z,5.99
2019-04-13T01:39:30.751Z,6.09
2019-04-13T01:42:02.759Z,6.10
2019-04-13T01:44:34.776Z,6.16
2019-04-13T01:47:06.668Z,6.16
2019-04-13T01:49:38.643Z,6.13
2019-04-13T01:52:10.583Z,6.11
2019-04-13T01:54:42.527Z,6.08
2019-04-13T01:57:14.463Z,6.09
2019-04-13T01:59:46.440Z,6.07
2019-04-13T02:02:26.763Z,6.07
2019-04-13T02:05:18.382Z,6.03
2019-04-13T02:08:00.607Z,6.08
2019-04-13T02:10:35.685Z,6.10
2019-04-13T02:13:07.616Z,6.06
2019-04-13T02:15:39.577Z,6.05
2019-04-13T02:18:11.536Z,5.99
2019-04-13T02:20:43.516Z,6.00
2019-04-13T02:23:15.446Z,6.02
2019-04-13T02:25:47.412Z,5.99
2019-04-13T02:28:19.352Z,5.98
2019-04-13T02:30:51.310Z,6.01
2019-04-13T02:33:23.247Z,5.87
2019-04-13T02:35:55.238Z,5.91
2019-04-13T02:38:27.195Z,5.85
2019-04-13T02:40:59.369Z,5.80
2019-04-13T02:43:31.309Z,5.90
2019-04-13T02:46:03.288Z,5.82
2019-04-13T02:48:35.204Z,5.81
2019-04-13T02:51:07.159Z,5.84
2019-04-13T02:53:39.125Z,5.86
2019-04-13T02:56:11.126Z,5.90
2019-04-13T02:58:43.050Z,5.97
2019-04-13T03:01:15.029Z,5.91
2019-04-13T03:03:47.352Z,5.85
2019-04-13T03:06:19.328Z,5.83
2019-04-13T03:08:51.256Z,5.82
2019-04-13T03:11:23.232Z,5.79
2019-04-13T03:13:55.181Z,5.86
2019-04-13T03:16:49.642Z,5.85
2019-04-13T03:19:28.344Z,5.89
2019-04-13T03:22:00.290Z,5.96
2019-04-13T03:24:32.262Z,5.87
2019-04-13T03:27:04.223Z,5.87
2019-04-13T03:29:36.170Z,5.88
2019-04-13T03:32:08.143Z,5.71
2019-04-13T03:34:40.073Z,5.75
2019-04-13T03:37:12.063Z,5.70
2019-04-13T03:39:44.022Z,5.67
2019-04-13T03:42:16.015Z,5.83
2019-04-13T03:44:47.949Z,5.74
2019-04-13T03:47:19.892Z,5.74
2019-04-13T03:49:51.857Z,5.76
2019-04-13T03:52:23.792Z,5.75
2019-04-13T03:54:55.755Z,5.77
2019-04-13T03:57:27.737Z,5.74
2019-04-13T03:59:59.689Z,5.74
2019-04-13T04:02:31.634Z,5.79
2019-04-13T04:05:04.384Z,5.73
2019-04-13T04:07:36.852Z,5.85
2019-04-13T04:10:09.023Z,5.83
2019-04-13T04:12:40.964Z,5.72
2019-04-13T04:15:12.956Z,5.76
2019-04-13T04:17:44.891Z,5.69
2019-04-13T04:20:16.858Z,5.65
2019-04-13T04:22:48.792Z,5.64
2019-04-13T04:25:20.734Z,5.61
2019-04-13T04:27:52.693Z,5.66
2019-04-13T04:30:24.704Z,5.68
2019-04-13T04:32:56.637Z,5.75
2019-04-13T04:35:28.614Z,5.77
2019-04-13T04:38:00.614Z,5.69
2019-04-13T04:40:35.155Z,5.79
2019-04-13T04:43:06.428Z,5.59
2019-04-13T04:45:38.374Z,5.63
2019-04-13T04:48:10.319Z,5.68
2019-04-13T04:50:42.288Z,5.68
2019-04-13T04:53:14.230Z,5.70
2019-04-13T04:55:46.201Z,5.67
2019-04-13T04:58:18.141Z,5.62
2019-04-13T05:00:50.110Z,5.63
2019-04-13T05:03:22.058Z,5.62
2019-04-13T05:05:54.018Z,5.54
2019-04-13T05:08:25.962Z,5.55
2019-04-13T05:10:57.919Z,5.57
2019-04-13T05:13:29.883Z,5.48
2019-04-13T05:16:01.829Z,5.53
2019-04-13T05:18:33.766Z,5.52
2019-04-13T05:21:05.768Z,5.47
2019-04-13T05:23:37.730Z,5.51
2019-04-13T05:26:09.693Z,5.61
2019-04-13T05:28:41.643Z,5.71
2019-04-13T05:31:13.604Z,5.67
2019-04-13T05:33:45.577Z,5.65
2019-04-13T05:36:17.547Z,5.77
2019-04-13T05:38:49.507Z,5.79
2019-04-13T05:41:21.568Z,5.99
2019-04-13T05:43:53.501Z,5.84
2019-04-13T05:46:25.467Z,5.86
2019-04-13T05:48:57.411Z,5.92
2019-04-13T05:51:29.443Z,5.87
2019-04-13T05:54:01.389Z,5.69
2019-04-13T05:56:33.373Z,5.66
2019-04-13T05:59:05.320Z,5.61
2019-04-13T06:01:37.310Z,5.85
2019-04-13T06:04:09.249Z,5.81
2019-04-13T06:06:41.338Z,5.80
2019-04-13T06:09:13.325Z,5.78
2019-04-13T06:11:45.615Z,5.80
2019-04-13T06:14:17.670Z,5.94
2019-04-13T06:16:49.628Z,5.95
2019-04-13T06:19:21.599Z,6.04
2019-04-13T06:21:53.547Z,6.13
2019-04-13T06:24:25.517Z,6.18
2019-04-13T06:26:57.463Z,6.27
2019-04-13T06:29:29.455Z,6.33
2019-04-13T06:32:26.700Z,6.58
2019-04-13T06:35:27.089Z,6.07
2019-04-13T06:37:59.121Z,6.01
2019-04-13T06:40:31.085Z,6.23
2019-04-13T06:43:03.067Z,6.51
2019-04-13T06:45:35.116Z,6.72
2019-04-13T06:48:07.088Z,6.92
2019-04-13T06:50:39.059Z,7.06
2019-04-13T06:53:11.039Z,7.22
2019-04-13T06:55:43.041Z,7.09
2019-04-13T06:58:15.792Z,6.97
2019-04-13T07:00:48.625Z,6.85
2019-04-13T07:03:20.683Z,6.81
2019-04-13T07:05:52.666Z,7.35
2019-04-13T07:08:38.119Z,7.60
2019-04-13T07:11:13.905Z,7.81
2019-04-13T07:13:54.697Z,8.15
2019-04-13T07:16:43.041Z,8.33
2019-04-13T07:19:13.258Z,8.15
2019-04-13T07:21:45.259Z,7.92
2019-04-13T07:24:18.640Z,7.94
2019-04-13T07:26:50.879Z,8.12
2019-04-13T07:29:24.420Z,8.46
2019-04-13T07:31:56.518Z,8.52
2019-04-13T07:34:28.520Z,8.80
2019-04-13T07:37:00.557Z,8.93
2019-04-13T07:39:32.598Z,8.89
2019-04-13T07:42:05.461Z,9.16
2019-04-13T07:44:43.227Z,9.22
2019-04-13T07:47:32.383Z,9.34
2019-04-13T07:50:24.337Z,9.41
2019-04-13T07:52:57.465Z,9.50
2019-04-13T07:55:29.508Z,9.54
2019-04-13T07:58:01.512Z,9.45
2019-04-13T08:00:34.821Z,9.61
2019-04-13T08:03:06.795Z,9.68
2019-04-13T08:05:38.808Z,9.69
2019-04-13T08:08:10.764Z,9.78
2019-04-13T08:10:42.758Z,9.89
2019-04-13T08:13:14.756Z,9.81
2019-04-13T08:15:46.740Z,9.90
2019-04-13T08:18:39.325Z,9.89
2019-04-13T08:21:12.262Z,10.00
2019-04-13T08:23:54.147Z,9.89
2019-04-13T08:26:26.113Z,10.09
2019-04-13T08:28:58.155Z,10.20
2019-04-13T08:31:30.158Z,10.30
2019-04-13T08:34:02.123Z,10.29
2019-04-13T08:36:34.157Z,10.12
2019-04-13T08:39:07.364Z,10.28
2019-04-13T08:41:39.393Z,10.47
2019-04-13T08:44:11.355Z,10.47
2019-04-13T08:46:43.344Z,10.58
2019-04-13T08:49:15.301Z,10.57
2019-04-13T08:51:47.413Z,10.91
2019-04-13T08:54:19.419Z,10.95
2019-04-13T08:56:51.401Z,11.04
2019-04-13T08:59:24.690Z,11.08
2019-04-13T09:01:56.856Z,11.46
2019-04-13T09:04:28.897Z,11.51
2019-04-13T09:07:00.862Z,11.62
2019-04-13T09:09:35.633Z,11.68
2019-04-13T09:12:08.622Z,11.72
2019-04-13T09:14:40.691Z,11.86
2019-04-13T09:17:16.962Z,12.01
2019-04-13T09:20:12.031Z,11.88
2019-04-13T09:23:02.303Z,11.97
2019-04-13T09:25:34.429Z,11.92
2019-04-13T09:28:06.398Z,11.92
2019-04-13T09:30:39.733Z,11.55
2019-04-13T09:33:11.741Z,11.51
2019-04-13T09:35:43.786Z,11.51
2019-04-13T09:38:15.763Z,11.23
2019-04-13T09:40:47.776Z,11.06
2019-04-13T09:43:24.017Z,11.04
2019-04-13T09:45:56.061Z,10.83
2019-04-13T09:48:28.109Z,10.93
2019-04-13T09:51:00.211Z,10.91
2019-04-13T09:53:32.244Z,11.01
2019-04-13T09:56:04.540Z,11.01
2019-04-13T09:58:36.554Z,11.11
2019-04-13T10:01:08.539Z,11.06
2019-04-13T10:03:40.556Z,10.89
2019-04-13T10:06:12.558Z,11.00
2019-04-13T10:08:55.321Z,10.85
2019-04-13T10:11:22.470Z,10.72
2019-04-13T10:14:04.647Z,10.71
2019-04-13T10:16:43.231Z,10.73
2019-04-13T10:19:15.232Z,10.55
2019-04-13T10:21:49.984Z,10.59
2019-04-13T10:24:35.562Z,10.55
2019-04-13T10:27:07.708Z,10.57
2019-04-13T10:29:39.698Z,10.60
2019-04-13T10:32:11.738Z,10.70
2019-04-13T10:34:43.734Z,10.79
2019-04-13T10:37:15.822Z,10.81
2019-04-13T10:39:47.951Z,10.72
2019-04-13T10:42:19.997Z,10.67
2019-04-13T10:45:06.009Z,10.71
2019-04-13T10:47:49.660Z,10.71
2019-04-13T10:50:43.669Z,10.91
2019-04-13T10:53:15.693Z,10.95
2019-04-13T10:55:47.717Z,11.13
2019-04-13T10:58:19.800Z,11.13
2019-04-13T11:00:51.825Z,11.18
2019-04-13T11:03:23.841Z,11.18
2019-04-13T11:05:55.832Z,11.25
2019-04-13T11:08:27.870Z,11.40
2019-04-13T11:10:59.835Z,11.21
2019-04-13T11:13:31.849Z,11.05
2019-04-13T11:16:03.953Z,11.02
2019-04-13T11:18:36.951Z,10.87
2019-04-13T11:21:09.695Z,10.71
2019-04-13T11:23:45.906Z,10.25
2019-04-13T11:26:15.636Z,10.24
2019-04-13T11:28:47.616Z,10.11
2019-04-13T11:31:22.764Z,10.22
2019-04-13T11:33:53.564Z,10.34
2019-04-13T11:36:25.500Z,10.42
2019-04-13T11:38:57.521Z,10.21
2019-04-13T11:41:49.071Z,10.33
2019-04-13T11:44:52.754Z,10.51
2019-04-13T11:47:30.263Z,10.73
2019-04-13T11:50:02.448Z,10.82
2019-04-13T11:52:34.407Z,10.87
2019-04-13T11:55:06.603Z,11.01
2019-04-13T11:57:38.556Z,10.96
2019-04-13T12:00:30.445Z,11.09
2019-04-13T12:03:15.247Z,11.08
2019-04-13T12:05:47.905Z,10.98
2019-04-13T12:08:21.134Z,10.90
2019-04-13T12:11:19.111Z,10.88
2019-04-13T12:14:00.309Z,10.91
2019-04-13T12:16:49.250Z,10.78
2019-04-13T12:19:27.144Z,10.81
2019-04-13T12:22:21.587Z,10.65
2019-04-13T12:24:53.608Z,10.75
2019-04-13T12:27:25.619Z,10.78
2019-04-13T12:29:57.649Z,10.53
2019-04-13T12:32:31.081Z,10.54
2019-04-13T12:35:07.398Z,10.57
2019-04-13T12:37:37.282Z,10.65
2019-04-13T12:40:34.876Z,10.53
2019-04-13T12:43:06.977Z,10.39
2019-04-13T12:45:38.997Z,10.37
2019-04-13T12:48:10.992Z,10.47
2019-04-13T12:50:43.004Z,10.47
2019-04-13T12:53:15.084Z,10.52
2019-04-13T12:55:47.179Z,10.57
2019-04-13T12:58:22.782Z,10.54
2019-04-13T13:01:02.602Z,10.43
2019-04-13T13:03:36.645Z,10.28
2019-04-13T13:06:09.116Z,10.22
2019-04-13T13:08:41.159Z,10.05
2019-04-13T13:11:13.297Z,9.96
2019-04-13T13:13:46.741Z,9.84
2019-04-13T13:16:18.762Z,9.76
2019-04-13T13:18:50.763Z,9.60
2019-04-13T13:21:22.861Z,9.58
2019-04-13T13:23:54.889Z,9.62
2019-04-13T13:26:26.892Z,9.62
2019-04-13T13:28:58.860Z,9.30
2019-04-13T13:31:30.873Z,9.23
2019-04-13T13:34:02.854Z,9.24
2019-04-13T13:36:34.976Z,9.09
2019-04-13T13:39:06.941Z,9.18
2019-04-13T13:41:39.113Z,9.16
2019-04-13T13:46:58.238Z,9.20
2019-04-13T13:49:30.212Z,9.07
2019-04-13T13:52:05.686Z,8.95
2019-04-13T13:54:36.142Z,8.96
2019-04-13T13:57:08.185Z,8.92
2019-04-13T13:59:40.204Z,8.88
2019-04-13T14:02:21.463Z,8.74
2019-04-13T14:04:53.524Z,8.64
2019-04-13T14:07:25.525Z,8.55
2019-04-13T14:10:15.852Z,8.68
2019-04-13T14:12:47.909Z,8.49
2019-04-13T14:15:19.933Z,8.42
2019-04-13T14:17:55.212Z,8.47
2019-04-13T14:20:27.476Z,8.50
2019-04-13T14:22:59.709Z,8.46
2019-04-13T14:25:31.740Z,8.35
2019-04-13T14:28:03.738Z,8.38
2019-04-13T14:30:35.782Z,8.39
2019-04-13T14:33:07.797Z,8.40
2019-04-13T14:35:39.919Z,8.24
2019-04-13T14:38:13.982Z,8.17
2019-04-13T14:40:55.335Z,8.15
2019-04-13T14:43:36.161Z,8.12
2019-04-13T14:46:09.298Z,8.13
2019-04-13T14:48:41.370Z,7.95
2019-04-13T14:51:13.578Z,7.89
2019-04-13T14:53:46.394Z,7.81
2019-04-13T14:56:19.160Z,7.64
2019-04-13T14:58:51.216Z,7.61
2019-04-13T15:01:23.271Z,7.63
2019-04-13T15:03:55.261Z,7.62
2019-04-13T15:06:27.288Z,7.52
2019-04-13T15:08:59.309Z,7.42
2019-04-13T15:11:31.317Z,7.56
2019-04-13T15:14:04.257Z,7.61
2019-04-13T15:16:36.319Z,7.54
2019-04-13T15:19:26.301Z,7.59
2019-04-13T15:21:50.183Z,7.58
2019-04-13T15:24:23.248Z,7.46
2019-04-13T15:26:56.305Z,7.53
2019-04-13T15:29:31.508Z,7.42
2019-04-13T15:32:02.334Z,7.31
2019-04-13T15:34:36.429Z,7.21
2019-04-13T15:37:09.857Z,7.09
2019-04-13T15:39:45.559Z,7.03
2019-04-13T15:42:21.911Z,7.10
2019-04-13T15:44:52.795Z,7.16
2019-04-13T15:47:27.145Z,7.18
2019-04-13T15:49:58.899Z,7.21
2019-04-13T15:52:31.159Z,7.18
2019-04-13T15:55:04.384Z,7.17
2019-04-13T15:57:37.260Z,7.22
2019-04-13T16:00:09.404Z,7.29
2019-04-13T16:02:42.715Z,7.27
2019-04-13T16:05:14.888Z,7.35
2019-04-13T16:07:46.899Z,7.31
2019-04-13T16:10:44.358Z,7.31
2019-04-13T16:13:21.544Z,7.25
2019-04-13T16:16:01.095Z,7.23
2019-04-13T16:18:33.174Z,7.30
2019-04-13T16:21:06.347Z,7.09
2019-04-13T16:23:39.015Z,7.04
2019-04-13T16:26:11.037Z,7.04
2019-04-13T16:29:10.056Z,7.06
2019-04-13T16:31:55.530Z,7.08
2019-04-13T16:34:46.640Z,7.01
2019-04-13T16:37:23.370Z,6.87
2019-04-13T16:39:55.860Z,6.80
2019-04-13T16:42:31.227Z,6.79
2019-04-13T16:45:34.123Z,6.87
2019-04-13T16:48:25.309Z,6.84
2019-04-13T16:51:16.209Z,6.79
2019-04-13T16:54:06.198Z,6.65
2019-04-13T16:56:45.856Z,6.63
2019-04-13T16:59:40.709Z,6.60
2019-04-13T17:02:35.971Z,6.67
2019-04-13T17:05:11.397Z,6.58
2019-04-13T17:07:44.715Z,6.43
2019-04-13T17:10:17.136Z,6.39
2019-04-13T17:12:49.394Z,6.34
2019-04-13T17:15:21.496Z,6.48
2019-04-13T17:17:53.699Z,6.49
2019-04-13T17:20:45.603Z,6.62
2019-04-13T17:23:46.342Z,6.58
2019-04-13T17:26:33.538Z,6.53
2019-04-13T17:29:18.734Z,6.43
2019-04-13T17:31:59.919Z,6.36
2019-04-13T17:34:36.302Z,6.40
2019-04-13T17:37:09.338Z,6.39
2019-04-13T17:39:41.419Z,6.35
2019-04-13T17:42:40.675Z,6.37
2019-04-13T17:45:28.208Z,6.30
2019-04-13T17:48:13.140Z,6.26
2019-04-13T17:51:03.907Z,6.25
2019-04-13T17:53:45.227Z,6.35
2019-04-13T17:56:19.818Z,6.31
2019-04-13T17:59:03.267Z,6.30
2019-04-13T18:01:53.809Z,6.26
2019-04-13T18:04:45.746Z,6.17
2019-04-13T18:07:37.420Z,6.15
2019-04-13T18:10:21.001Z,5.99
2019-04-13T18:13:11.986Z,5.95
2019-04-13T18:16:04.291Z,6.01
2019-04-13T18:18:39.668Z,5.87
2019-04-13T18:21:11.624Z,5.80
2019-04-13T18:23:44.026Z,5.81
2019-04-13T18:26:16.356Z,5.75
2019-04-13T18:28:48.432Z,5.66
2019-04-13T18:31:20.638Z,5.66
2019-04-13T18:33:53.398Z,5.61
2019-04-13T18:36:25.725Z,5.67
2019-04-13T18:38:58.323Z,5.59
2019-04-13T18:41:30.916Z,5.40
2019-04-13T18:44:03.382Z,5.32
2019-04-13T18:46:36.269Z,5.34
2019-04-13T18:49:09.525Z,5.41
2019-04-13T18:51:42.050Z,5.40
2019-04-13T18:54:14.145Z,5.31
2019-04-13T18:56:46.180Z,5.19
2019-04-13T18:59:19.370Z,5.00
2019-04-13T19:01:51.671Z,4.94
2019-04-13T19:04:23.704Z,4.94
2019-04-13T19:06:55.711Z,5.00
2019-04-13T19:09:27.782Z,4.95
2019-04-13T19:11:59.814Z,4.81
2019-04-13T19:14:31.860Z,4.79
2019-04-13T19:17:03.980Z,4.80
2019-04-13T19:19:36.020Z,4.77
2019-04-13T19:22:08.089Z,4.66
2019-04-13T19:24:40.172Z,4.75
2019-04-13T19:27:12.215Z,4.76
2019-04-13T19:29:44.306Z,4.81
2019-04-13T19:32:16.384Z,4.82
2019-04-13T19:34:48.484Z,4.85
2019-04-13T19:37:20.498Z,4.93
2019-04-13T19:39:52.574Z,4.91
2019-04-13T19:42:24.608Z,4.89
2019-04-13T19:44:56.696Z,5.03
2019-04-13T19:47:28.693Z,5.08
2019-04-13T19:50:00.853Z,5.12
2019-04-13T19:52:58.635Z,5.22
2019-04-13T19:55:30.697Z,5.17
2019-04-13T19:58:02.680Z,5.18
2019-04-13T20:00:38.805Z,5.23
2019-04-13T20:03:10.784Z,5.22
2019-04-13T20:05:42.823Z,5.15
2019-04-13T20:08:14.865Z,5.15
2019-04-13T20:10:46.996Z,5.08
2019-04-13T20:13:30.763Z,5.10
2019-04-13T20:15:53.136Z,5.07
2019-04-13T20:18:26.204Z,4.99
2019-04-13T20:20:58.303Z,4.97
2019-04-13T20:23:30.277Z,4.91
2019-04-13T20:26:03.342Z,4.89
2019-04-13T20:28:35.470Z,4.89
2019-04-13T20:31:07.485Z,4.91
2019-04-13T20:33:39.503Z,4.84
2019-04-13T20:36:16.396Z,4.81
2019-04-13T20:38:45.578Z,4.85
2019-04-13T20:41:21.537Z,4.94
2019-04-13T20:44:02.299Z,4.85
2019-04-13T20:46:27.815Z,4.90
2019-04-13T20:48:59.910Z,4.85
2019-04-13T20:51:32.169Z,4.80
2019-04-13T20:54:04.216Z,4.63
2019-04-13T20:56:36.258Z,4.46
2019-04-13T20:59:08.563Z,4.52
2019-04-13T21:01:40.907Z,4.40
2019-04-13T21:04:13.024Z,4.35
2019-04-13T21:06:45.724Z,4.16
2019-04-13T21:09:18.354Z,4.08
2019-04-13T21:11:50.556Z,3.94
2019-04-13T21:14:29.080Z,3.64
2019-04-13T21:16:56.463Z,3.51
2019-04-13T21:19:28.663Z,3.52
2019-04-13T21:22:00.797Z,3.46
2019-04-13T21:24:33.082Z,3.44
2019-04-13T21:27:05.326Z,3.33
2019-04-13T21:29:37.426Z,3.41
2019-04-13T21:32:09.558Z,3.47
2019-04-13T21:34:42.942Z,3.49
2019-04-13T21:37:15.979Z,3.58
2019-04-13T21:39:48.382Z,3.58
2019-04-13T21:42:20.412Z,3.66
2019-04-13T21:44:53.040Z,3.65
2019-04-13T21:47:25.173Z,3.67
2019-04-13T21:50:04.354Z,3.79
2019-04-13T21:52:50.080Z,3.81
2019-04-13T21:55:36.048Z,3.85
2019-04-13T21:58:08.045Z,3.89
2019-04-13T22:01:08.601Z,3.82
2019-04-13T22:03:40.713Z,3.80
2019-04-13T22:06:12.710Z,3.86
2019-04-13T22:08:44.944Z,3.81
2019-04-13T22:11:17.062Z,3.90
2019-04-13T22:13:49.086Z,3.89
2019-04-13T22:16:21.236Z,3.89
2019-04-13T22:18:53.909Z,3.93
2019-04-13T22:21:26.247Z,4.06
2019-04-13T22:23:58.594Z,3.95
2019-04-13T22:26:30.680Z,3.90
2019-04-13T22:29:07.558Z,3.82
2019-04-13T22:32:14.547Z,3.73
2019-04-13T22:35:06.555Z,3.57
2019-04-13T22:37:38.625Z,3.50
2019-04-13T22:40:10.847Z,3.41
2019-04-13T22:42:42.914Z,3.45
2019-04-13T22:45:16.482Z,3.42
2019-04-13T22:47:54.144Z,3.42
2019-04-13T22:50:55.074Z,3.45
2019-04-13T22:53:44.017Z,3.47
2019-04-13T22:56:22.903Z,3.54
2019-04-13T22:58:55.786Z,3.53
2019-04-13T23:01:29.736Z,3.58
2019-04-13T23:04:01.743Z,3.57
2019-04-13T23:06:33.730Z,3.57
2019-04-13T23:09:06.477Z,3.58
2019-04-13T23:11:38.935Z,3.60
2019-04-13T23:14:11.179Z,3.66
2019-04-13T23:16:43.426Z,3.59
2019-04-13T23:19:15.504Z,3.63
2019-04-13T23:21:48.416Z,3.53
2019-04-13T23:24:21.314Z,3.43
2019-04-13T23:26:53.744Z,3.41
2019-04-13T23:29:25.883Z,3.42
2019-04-13T23:31:58.695Z,3.41
2019-04-13T23:34:31.156Z,3.37
2019-04-13T23:37:04.039Z,3.44
2019-04-13T23:39:36.664Z,3.32
2019-04-13T23:42:09.153Z,3.33
2019-04-13T23:44:42.057Z,3.25
2019-04-13T23:47:14.399Z,3.16
2019-04-13T23:49:47.142Z,3.19
2019-04-13T23:52:19.668Z,3.39
2019-04-13T23:54:52.352Z,3.26
2019-04-13T23:57:31.453Z,3.13
